createdAt,value
2018-07-22T00:00:24.822Z,0
2018-07-22T00:01:25.386Z,0
2018-07-22T00:02:25.956Z,0
2018-07-22T00:03:26.535Z,0
2018-07-22T00:04:27.085Z,0
2018-07-22T00:05:27.639Z,0
2018-07-22T00:06:28.194Z,0
2018-07-22T00:07:28.750Z,0
2018-07-22T00:08:29.303Z,0
2018-07-22T00:09:29.858Z,0
2018-07-22T00:10:30.403Z,0
2018-07-22T00:11:30.959Z,0
2018-07-22T00:12:31.515Z,0
2018-07-22T00:13:32.070Z,0
2018-07-22T00:14:32.624Z,0
2018-07-22T00:15:33.173Z,0
2018-07-22T00:16:33.728Z,0
2018-07-22T00:17:34.284Z,0
2018-07-22T00:18:34.845Z,0
2018-07-22T00:19:35.393Z,0
2018-07-22T00:20:35.953Z,0
2018-07-22T00:21:36.493Z,0
2018-07-22T00:22:37.041Z,0
2018-07-22T00:23:37.595Z,0
2018-07-22T00:24:38.146Z,0
2018-07-22T00:25:38.704Z,0
2018-07-22T00:26:39.254Z,0
2018-07-22T00:27:39.811Z,0
2018-07-22T00:28:40.364Z,0
2018-07-22T00:29:40.921Z,0
2018-07-22T00:30:41.476Z,0
2018-07-22T00:31:42.035Z,0
2018-07-22T00:32:42.585Z,0
2018-07-22T00:33:43.139Z,0
2018-07-22T00:34:43.698Z,0
2018-07-22T00:35:44.252Z,0
2018-07-22T00:36:44.808Z,0
2018-07-22T00:37:45.360Z,0
2018-07-22T00:38:45.939Z,0
2018-07-22T00:39:46.471Z,0
2018-07-22T00:40:47.031Z,0
2018-07-22T00:41:47.584Z,0
2018-07-22T00:42:48.139Z,0
2018-07-22T00:43:48.693Z,0
2018-07-22T00:44:49.250Z,0
2018-07-22T00:45:49.804Z,0
2018-07-22T00:46:50.361Z,0
2018-07-22T00:47:50.916Z,0
2018-07-22T00:48:51.473Z,0
2018-07-22T00:49:52.043Z,0
2018-07-22T00:50:52.575Z,0
2018-07-22T00:51:53.129Z,0
2018-07-22T00:52:53.687Z,0
2018-07-22T00:53:54.242Z,0
2018-07-22T00:54:54.797Z,0
2018-07-22T00:55:55.358Z,0
2018-07-22T00:56:55.905Z,0
2018-07-22T00:57:56.454Z,0
2018-07-22T00:58:57.010Z,0
2018-07-22T00:59:57.651Z,0
2018-07-22T01:00:58.115Z,0
2018-07-22T01:01:58.664Z,0
2018-07-22T01:02:59.216Z,0
2018-07-22T01:03:59.774Z,0
2018-07-22T01:05:00.329Z,0
2018-07-22T01:06:00.884Z,0
2018-07-22T01:07:01.441Z,0
2018-07-22T01:08:01.993Z,0
2018-07-22T01:09:02.546Z,0
2018-07-22T01:10:03.097Z,0
2018-07-22T01:11:03.652Z,0
2018-07-22T01:12:04.201Z,0
2018-07-22T01:13:04.757Z,0
2018-07-22T01:14:05.309Z,0
2018-07-22T01:15:05.867Z,0
2018-07-22T01:16:06.426Z,0
2018-07-22T01:17:06.977Z,0
2018-07-22T01:18:07.532Z,0
2018-07-22T01:19:08.081Z,0
2018-07-22T01:20:08.638Z,0
2018-07-22T01:21:09.196Z,0
2018-07-22T01:22:09.750Z,0
2018-07-22T01:23:10.295Z,0
2018-07-22T01:24:10.849Z,0
2018-07-22T01:25:11.405Z,0
2018-07-22T01:26:11.956Z,0
2018-07-22T01:27:12.512Z,0
2018-07-22T01:28:13.065Z,0
2018-07-22T01:29:13.623Z,0
2018-07-22T01:30:14.182Z,0
2018-07-22T01:31:14.735Z,0
2018-07-22T01:32:15.290Z,0
2018-07-22T01:33:15.839Z,0
2018-07-22T01:34:16.396Z,0
2018-07-22T01:35:16.955Z,0
2018-07-22T01:36:17.504Z,0
2018-07-22T01:37:18.069Z,0
2018-07-22T01:38:18.636Z,0
2018-07-22T01:39:19.189Z,0
2018-07-22T01:40:19.756Z,0
2018-07-22T01:41:20.313Z,0
2018-07-22T01:42:20.864Z,0
2018-07-22T01:43:21.489Z,0
2018-07-22T01:44:21.967Z,0
2018-07-22T01:45:22.527Z,0
2018-07-22T01:46:23.080Z,0
2018-07-22T01:47:23.634Z,0
2018-07-22T01:48:24.192Z,0
2018-07-22T01:49:24.738Z,0
2018-07-22T01:50:25.288Z,0
2018-07-22T01:51:25.842Z,0
2018-07-22T01:52:26.416Z,0
2018-07-22T01:53:26.948Z,0
2018-07-22T01:54:27.506Z,0
2018-07-22T01:55:28.061Z,0
2018-07-22T01:56:28.615Z,0
2018-07-22T01:57:29.165Z,0
2018-07-22T01:58:29.723Z,0
2018-07-22T01:59:30.272Z,0
2018-07-22T02:00:30.827Z,0
2018-07-22T02:01:31.434Z,0
2018-07-22T02:02:31.945Z,0
2018-07-22T02:03:32.501Z,0
2018-07-22T02:04:33.059Z,0
2018-07-22T02:05:33.611Z,0
2018-07-22T02:06:34.199Z,0
2018-07-22T02:07:34.714Z,0
2018-07-22T02:08:35.271Z,0
2018-07-22T02:09:35.823Z,0
2018-07-22T02:10:36.376Z,0
2018-07-22T02:11:36.931Z,0
2018-07-22T02:12:37.483Z,0
2018-07-22T02:13:38.030Z,0
2018-07-22T02:14:38.588Z,0
2018-07-22T02:15:39.140Z,0
2018-07-22T02:16:39.695Z,0
2018-07-22T02:17:40.248Z,0
2018-07-22T02:18:40.806Z,0
2018-07-22T02:19:41.396Z,0
2018-07-22T02:20:41.975Z,0
2018-07-22T02:21:42.481Z,0
2018-07-22T02:22:43.044Z,0
2018-07-22T02:23:43.599Z,0
2018-07-22T02:24:44.154Z,0
2018-07-22T02:25:44.709Z,0
2018-07-22T02:26:45.262Z,0
2018-07-22T02:27:45.814Z,0
2018-07-22T02:28:46.372Z,0
2018-07-22T02:29:46.923Z,0
2018-07-22T02:30:47.477Z,0
2018-07-22T02:31:48.023Z,0
2018-07-22T02:32:48.568Z,0
2018-07-22T02:33:49.118Z,0
2018-07-22T02:34:49.673Z,0
2018-07-22T02:35:50.227Z,0
2018-07-22T02:36:50.783Z,0
2018-07-22T02:37:51.335Z,0
2018-07-22T02:38:51.892Z,0
2018-07-22T02:39:52.440Z,0
2018-07-22T02:40:53.029Z,0
2018-07-22T02:41:53.549Z,0
2018-07-22T02:42:54.104Z,0
2018-07-22T02:43:54.655Z,0
2018-07-22T02:44:55.213Z,0
2018-07-22T02:45:55.758Z,0
2018-07-22T02:46:56.312Z,0
2018-07-22T02:47:56.859Z,0
2018-07-22T02:48:57.415Z,0
2018-07-22T02:49:57.961Z,0
2018-07-22T02:50:58.518Z,0
2018-07-22T02:51:59.073Z,0
2018-07-22T02:52:59.635Z,0
2018-07-22T02:54:00.188Z,0
2018-07-22T02:55:00.740Z,0
2018-07-22T02:56:01.299Z,0
2018-07-22T02:57:01.845Z,0
2018-07-22T02:58:02.394Z,0
2018-07-22T02:59:02.949Z,0
2018-07-22T03:00:03.505Z,0
2018-07-22T03:01:04.053Z,0
2018-07-22T03:02:04.601Z,0
2018-07-22T03:03:05.164Z,0
2018-07-22T03:04:05.708Z,4
2018-07-22T03:05:06.266Z,4
2018-07-22T03:06:06.819Z,4
2018-07-22T03:07:07.376Z,0
2018-07-22T03:08:07.924Z,4
2018-07-22T03:09:08.483Z,4
2018-07-22T03:10:09.041Z,4
2018-07-22T03:11:09.594Z,4
2018-07-22T03:12:10.146Z,8
2018-07-22T03:13:10.701Z,4
2018-07-22T03:14:11.254Z,8
2018-07-22T03:15:11.810Z,8
2018-07-22T03:16:12.368Z,12
2018-07-22T03:17:12.926Z,12
2018-07-22T03:18:13.477Z,16
2018-07-22T03:19:14.031Z,20
2018-07-22T03:20:14.581Z,24
2018-07-22T03:21:15.137Z,24
2018-07-22T03:22:15.694Z,24
2018-07-22T03:23:16.249Z,28
2018-07-22T03:24:16.801Z,36
2018-07-22T03:25:17.357Z,40
2018-07-22T03:26:17.920Z,44
2018-07-22T03:27:18.472Z,52
2018-07-22T03:28:19.029Z,60
2018-07-22T03:29:19.584Z,68
2018-07-22T03:30:20.142Z,80
2018-07-22T03:31:20.686Z,84
2018-07-22T03:32:21.240Z,96
2018-07-22T03:33:21.799Z,108
2018-07-22T03:34:22.354Z,120
2018-07-22T03:35:22.909Z,136
2018-07-22T03:36:23.465Z,152
2018-07-22T03:37:24.023Z,164
2018-07-22T03:38:24.604Z,184
2018-07-22T03:39:25.140Z,200
2018-07-22T03:40:25.696Z,220
2018-07-22T03:41:26.252Z,244
2018-07-22T03:42:26.803Z,260
2018-07-22T03:43:27.366Z,288
2018-07-22T03:44:27.918Z,312
2018-07-22T03:45:28.475Z,336
2018-07-22T03:46:29.033Z,364
2018-07-22T03:47:29.672Z,392
2018-07-22T03:48:30.146Z,420
2018-07-22T03:49:30.702Z,448
2018-07-22T03:50:31.252Z,480
2018-07-22T03:51:31.804Z,512
2018-07-22T03:52:32.361Z,548
2018-07-22T03:53:32.910Z,580
2018-07-22T03:54:33.467Z,620
2018-07-22T03:55:34.025Z,660
2018-07-22T03:56:34.583Z,700
2018-07-22T03:57:35.141Z,744
2018-07-22T03:58:35.701Z,784
2018-07-22T03:59:36.263Z,820
2018-07-22T04:00:36.817Z,864
2018-07-22T04:01:37.374Z,912
2018-07-22T04:02:37.927Z,956
2018-07-22T04:03:38.488Z,1000
2018-07-22T04:04:39.045Z,1044
2018-07-22T04:05:39.605Z,1092
2018-07-22T04:06:40.157Z,1140
2018-07-22T04:07:40.708Z,1192
2018-07-22T04:08:41.259Z,1244
2018-07-22T04:09:41.809Z,1304
2018-07-22T04:10:42.363Z,1356
2018-07-22T04:11:42.922Z,1420
2018-07-22T04:12:43.479Z,1484
2018-07-22T04:13:44.045Z,1548
2018-07-22T04:14:44.597Z,1620
2018-07-22T04:15:45.156Z,1692
2018-07-22T04:16:46.015Z,1764
2018-07-22T04:17:46.469Z,1832
2018-07-22T04:18:47.030Z,1904
2018-07-22T04:19:47.595Z,1980
2018-07-22T04:20:48.150Z,2056
2018-07-22T04:21:48.711Z,2132
2018-07-22T04:22:49.270Z,2200
2018-07-22T04:23:49.826Z,2272
2018-07-22T04:24:50.386Z,2348
2018-07-22T04:25:51.001Z,2424
2018-07-22T04:26:51.544Z,2524
2018-07-22T04:27:52.133Z,2636
2018-07-22T04:28:52.672Z,2756
2018-07-22T04:29:53.226Z,2872
2018-07-22T04:30:53.789Z,2992
2018-07-22T04:31:54.346Z,3116
2018-07-22T04:32:54.906Z,3244
2018-07-22T04:33:55.464Z,3356
2018-07-22T04:34:56.026Z,3440
2018-07-22T04:35:56.584Z,3528
2018-07-22T04:36:57.149Z,3600
2018-07-22T04:37:57.712Z,3644
2018-07-22T04:38:58.260Z,3692
2018-07-22T04:39:58.825Z,3752
2018-07-22T04:40:59.437Z,3804
2018-07-22T04:41:59.935Z,3856
2018-07-22T04:43:00.494Z,3912
2018-07-22T04:44:01.054Z,3980
2018-07-22T04:45:01.689Z,4048
2018-07-22T04:46:02.184Z,4136
2018-07-22T04:47:02.743Z,4248
2018-07-22T04:48:03.307Z,4360
2018-07-22T04:49:03.860Z,4468
2018-07-22T04:50:04.423Z,4576
2018-07-22T04:51:04.986Z,4692
2018-07-22T04:52:05.545Z,4852
2018-07-22T04:53:06.104Z,5144
2018-07-22T04:54:06.664Z,5424
2018-07-22T04:55:07.217Z,5444
2018-07-22T04:56:07.777Z,5444
2018-07-22T04:57:08.337Z,5864
2018-07-22T04:58:08.899Z,6024
2018-07-22T04:59:09.461Z,6084
2018-07-22T05:00:10.024Z,6292
2018-07-22T05:01:10.592Z,6484
2018-07-22T05:02:11.164Z,6460
2018-07-22T05:03:11.712Z,6548
2018-07-22T05:04:12.266Z,6668
2018-07-22T05:05:12.824Z,6776
2018-07-22T05:06:13.385Z,6856
2018-07-22T05:07:13.944Z,6940
2018-07-22T05:08:14.498Z,7036
2018-07-22T05:09:15.065Z,7156
2018-07-22T05:10:15.620Z,7448
2018-07-22T05:11:16.182Z,8164
2018-07-22T05:12:16.743Z,8872
2018-07-22T05:13:17.297Z,9156
2018-07-22T05:14:17.859Z,9360
2018-07-22T05:15:18.423Z,9600
2018-07-22T05:16:18.990Z,9796
2018-07-22T05:17:19.549Z,9584
2018-07-22T05:18:20.114Z,9344
2018-07-22T05:19:20.680Z,9856
2018-07-22T05:20:21.244Z,10596
2018-07-22T05:21:21.806Z,10788
2018-07-22T05:22:22.367Z,10976
2018-07-22T05:23:22.930Z,11140
2018-07-22T05:24:23.494Z,11312
2018-07-22T05:25:24.054Z,11468
2018-07-22T05:26:24.622Z,11732
2018-07-22T05:27:25.188Z,12008
2018-07-22T05:28:25.836Z,12288
2018-07-22T05:29:26.318Z,11864
2018-07-22T05:30:26.899Z,10832
2018-07-22T05:31:27.465Z,10192
2018-07-22T05:32:28.030Z,11252
2018-07-22T05:33:28.600Z,12800
2018-07-22T05:34:29.167Z,13788
2018-07-22T05:35:29.744Z,14016
2018-07-22T05:36:30.302Z,14204
2018-07-22T05:37:30.862Z,14396
2018-07-22T05:38:31.436Z,14472
2018-07-22T05:39:32.018Z,14576
2018-07-22T05:40:32.610Z,14620
2018-07-22T05:41:33.185Z,14656
2018-07-22T05:42:33.756Z,14536
2018-07-22T05:43:34.324Z,13076
2018-07-22T05:44:34.888Z,11324
2018-07-22T05:45:35.461Z,11296
2018-07-22T05:46:36.038Z,13352
2018-07-22T05:47:36.600Z,15288
2018-07-22T05:48:37.170Z,15804
2018-07-22T05:49:37.739Z,16028
2018-07-22T05:50:38.310Z,16324
2018-07-22T05:51:38.884Z,16544
2018-07-22T05:52:39.456Z,16756
2018-07-22T05:53:40.032Z,16900
2018-07-22T05:54:40.600Z,16972
2018-07-22T05:55:41.188Z,17080
2018-07-22T05:56:41.759Z,17472
2018-07-22T05:57:42.322Z,17600
2018-07-22T05:58:42.896Z,16880
2018-07-22T05:59:43.491Z,16412
2018-07-22T06:00:44.057Z,13476
2018-07-22T06:01:44.644Z,11440
2018-07-22T06:02:45.216Z,11788
2018-07-22T06:03:45.836Z,11924
2018-07-22T06:04:46.394Z,14188
2018-07-22T06:05:46.959Z,15536
2018-07-22T06:06:47.529Z,13216
2018-07-22T06:07:48.099Z,12640
2018-07-22T06:08:48.660Z,15836
2018-07-22T06:09:49.232Z,19200
2018-07-22T06:10:49.810Z,20320
2018-07-22T06:11:50.439Z,21728
2018-07-22T06:12:50.944Z,22624
2018-07-22T06:13:51.531Z,22656
2018-07-22T06:14:52.110Z,19232
2018-07-22T06:15:52.681Z,22336
2018-07-22T06:16:53.273Z,20832
2018-07-22T06:17:53.826Z,16900
2018-07-22T06:18:54.399Z,16472
2018-07-22T06:19:54.973Z,21568
2018-07-22T06:20:55.550Z,24768
2018-07-22T06:21:56.114Z,25088
2018-07-22T06:22:56.687Z,25248
2018-07-22T06:23:57.260Z,25184
2018-07-22T06:24:57.831Z,24896
2018-07-22T06:25:58.411Z,25248
2018-07-22T06:26:58.982Z,25696
2018-07-22T06:27:59.552Z,26144
2018-07-22T06:29:00.133Z,26624
2018-07-22T06:30:00.708Z,26880
2018-07-22T06:31:01.283Z,27296
2018-07-22T06:32:01.898Z,27808
2018-07-22T06:33:02.463Z,28480
2018-07-22T06:34:03.037Z,28480
2018-07-22T06:35:03.607Z,28416
2018-07-22T06:36:04.172Z,28320
2018-07-22T06:37:04.736Z,28352
2018-07-22T06:38:05.311Z,28416
2018-07-22T06:39:05.889Z,28864
2018-07-22T06:40:06.462Z,29376
2018-07-22T06:41:07.038Z,29536
2018-07-22T06:42:07.601Z,29856
2018-07-22T06:43:08.173Z,30304
2018-07-22T06:44:08.748Z,30624
2018-07-22T06:45:09.321Z,30816
2018-07-22T06:46:09.923Z,31040
2018-07-22T06:47:10.463Z,31456
2018-07-22T06:48:11.043Z,31872
2018-07-22T06:49:11.610Z,32320
2018-07-22T06:50:12.182Z,32576
2018-07-22T06:51:12.754Z,32288
2018-07-22T06:52:13.331Z,32480
2018-07-22T06:53:13.903Z,32704
2018-07-22T06:54:14.483Z,33216
2018-07-22T06:55:15.043Z,33824
2018-07-22T06:56:15.616Z,34176
2018-07-22T06:57:16.220Z,34784
2018-07-22T06:58:16.758Z,35392
2018-07-22T06:59:17.333Z,35008
2018-07-22T07:00:17.907Z,35040
2018-07-22T07:01:18.485Z,35424
2018-07-22T07:02:19.063Z,35744
2018-07-22T07:03:19.630Z,36352
2018-07-22T07:04:20.204Z,35360
2018-07-22T07:05:20.829Z,37088
2018-07-22T07:06:21.348Z,37568
2018-07-22T07:07:21.926Z,36928
2018-07-22T07:08:22.499Z,38496
2018-07-22T07:09:23.071Z,38880
2018-07-22T07:10:23.643Z,39264
2018-07-22T07:11:24.218Z,37760
2018-07-22T07:12:24.799Z,35712
2018-07-22T07:13:25.366Z,36128
2018-07-22T07:14:25.944Z,39424
2018-07-22T07:15:26.517Z,40544
2018-07-22T07:16:27.088Z,40832
2018-07-22T07:17:27.663Z,41120
2018-07-22T07:18:28.236Z,41984
2018-07-22T07:19:28.809Z,41024
2018-07-22T07:20:29.401Z,39744
2018-07-22T07:21:29.966Z,40416
2018-07-22T07:22:30.542Z,40480
2018-07-22T07:23:31.119Z,42464
2018-07-22T07:24:31.698Z,42880
2018-07-22T07:25:32.275Z,43872
2018-07-22T07:26:32.857Z,43936
2018-07-22T07:27:33.441Z,43008
2018-07-22T07:28:34.003Z,42752
2018-07-22T07:29:34.582Z,44704
2018-07-22T07:30:35.186Z,45760
2018-07-22T07:31:35.741Z,45792
2018-07-22T07:32:36.308Z,44608
2018-07-22T07:33:36.888Z,46880
2018-07-22T07:34:37.468Z,46880
2018-07-22T07:35:38.061Z,43104
2018-07-22T07:36:38.626Z,41472
2018-07-22T07:37:39.201Z,48640
2018-07-22T07:38:39.775Z,42880
2018-07-22T07:39:40.355Z,41184
2018-07-22T07:40:40.928Z,41728
2018-07-22T07:41:41.497Z,46176
2018-07-22T07:42:42.074Z,45568
2018-07-22T07:43:42.664Z,47904
2018-07-22T07:44:43.215Z,39936
2018-07-22T07:45:43.784Z,42336
2018-07-22T07:46:44.357Z,31584
2018-07-22T07:47:44.926Z,33504
2018-07-22T07:48:45.490Z,32512
2018-07-22T07:49:46.064Z,31968
2018-07-22T07:50:46.638Z,30496
2018-07-22T07:51:47.205Z,33856
2018-07-22T07:52:47.780Z,38240
2018-07-22T07:53:48.351Z,44800
2018-07-22T07:54:48.928Z,48448
2018-07-22T07:55:49.507Z,52448
2018-07-22T07:56:50.080Z,53216
2018-07-22T07:57:50.653Z,45408
2018-07-22T07:58:51.222Z,58176
2018-07-22T07:59:51.793Z,42720
2018-07-22T08:00:52.368Z,63008
2018-07-22T08:01:52.943Z,62016
2018-07-22T08:02:53.518Z,57024
2018-07-22T08:03:54.139Z,57088
2018-07-22T08:04:54.662Z,56576
2018-07-22T08:05:55.239Z,58560
2018-07-22T08:06:55.808Z,56544
2018-07-22T08:07:56.381Z,49696
2018-07-22T08:08:56.957Z,52512
2018-07-22T08:09:57.533Z,50944
2018-07-22T08:10:58.114Z,54592
2018-07-22T08:11:58.677Z,53088
2018-07-22T08:12:59.254Z,54368
2018-07-22T08:13:59.819Z,30720
2018-07-22T08:15:00.396Z,28512
2018-07-22T08:16:00.967Z,37728
2018-07-22T08:17:01.544Z,44384
2018-07-22T08:18:02.116Z,60960
2018-07-22T08:19:02.696Z,63744
2018-07-22T08:20:03.264Z,67232
2018-07-22T08:21:03.830Z,66560
2018-07-22T08:22:04.434Z,51872
2018-07-22T08:23:04.964Z,56352
2018-07-22T08:24:05.540Z,55200
2018-07-22T08:25:06.116Z,68192
2018-07-22T08:26:06.737Z,66496
2018-07-22T08:27:07.257Z,63840
2018-07-22T08:28:07.833Z,65280
2018-07-22T08:29:08.407Z,64640
2018-07-22T08:30:09.023Z,63840
2018-07-22T08:31:09.551Z,61984
2018-07-22T08:32:10.124Z,63264
2018-07-22T08:33:10.699Z,63712
2018-07-22T08:34:11.276Z,66528
2018-07-22T08:35:11.856Z,66688
2018-07-22T08:36:12.425Z,65312
2018-07-22T08:37:12.998Z,66976
2018-07-22T08:38:13.567Z,71840
2018-07-22T08:39:14.189Z,68768
2018-07-22T08:40:14.763Z,66720
2018-07-22T08:41:15.398Z,66368
2018-07-22T08:42:16.010Z,65504
2018-07-22T08:43:16.586Z,67200
2018-07-22T08:44:17.162Z,68000
2018-07-22T08:45:17.740Z,70976
2018-07-22T08:46:18.318Z,72992
2018-07-22T08:47:18.890Z,72672
2018-07-22T08:48:19.458Z,71936
2018-07-22T08:49:20.026Z,71488
2018-07-22T08:50:20.602Z,72480
2018-07-22T08:51:21.178Z,72096
2018-07-22T08:52:21.753Z,70400
2018-07-22T08:53:22.332Z,69504
2018-07-22T08:54:22.899Z,64640
2018-07-22T08:55:23.481Z,61088
2018-07-22T08:56:24.051Z,66784
2018-07-22T08:57:24.621Z,67584
2018-07-22T08:58:25.198Z,68736
2018-07-22T08:59:25.774Z,68320
2018-07-22T09:00:26.351Z,70144
2018-07-22T09:01:26.933Z,72384
2018-07-22T09:02:27.508Z,74688
2018-07-22T09:03:28.088Z,75168
2018-07-22T09:04:28.656Z,71968
2018-07-22T09:05:29.256Z,73568
2018-07-22T09:06:29.802Z,75008
2018-07-22T09:07:30.384Z,76224
2018-07-22T09:08:30.957Z,74496
2018-07-22T09:09:31.533Z,77856
2018-07-22T09:10:32.108Z,78784
2018-07-22T09:11:32.689Z,78752
2018-07-22T09:12:33.266Z,80320
2018-07-22T09:13:33.841Z,80864
2018-07-22T09:14:34.419Z,78784
2018-07-22T09:15:34.996Z,77184
2018-07-22T09:16:35.572Z,74560
2018-07-22T09:17:36.168Z,76480
2018-07-22T09:18:36.730Z,72832
2018-07-22T09:19:37.299Z,78944
2018-07-22T09:20:37.877Z,82784
2018-07-22T09:21:38.447Z,81664
2018-07-22T09:22:39.022Z,81568
2018-07-22T09:23:39.597Z,81408
2018-07-22T09:24:40.169Z,82240
2018-07-22T09:25:40.742Z,82112
2018-07-22T09:26:41.312Z,84384
2018-07-22T09:27:41.890Z,83136
2018-07-22T09:28:42.464Z,60576
2018-07-22T09:29:43.035Z,78752
2018-07-22T09:30:43.608Z,58656
2018-07-22T09:31:44.185Z,94016
2018-07-22T09:32:44.762Z,72928
2018-07-22T09:33:45.340Z,89024
2018-07-22T09:34:45.911Z,90048
2018-07-22T09:35:46.530Z,90176
2018-07-22T09:36:47.060Z,89344
2018-07-22T09:37:47.629Z,56864
2018-07-22T09:38:48.202Z,64000
2018-07-22T09:39:48.780Z,59168
2018-07-22T09:40:49.357Z,54240
2018-07-22T09:41:49.942Z,94208
2018-07-22T09:42:50.511Z,92256
2018-07-22T09:43:51.081Z,89152
2018-07-22T09:44:51.650Z,83840
2018-07-22T09:45:52.225Z,79744
2018-07-22T09:46:52.798Z,88512
2018-07-22T09:47:53.370Z,94240
2018-07-22T09:48:53.946Z,92320
2018-07-22T09:49:54.515Z,92192
2018-07-22T09:50:55.085Z,82144
2018-07-22T09:51:55.656Z,60064
2018-07-22T09:52:56.234Z,85376
2018-07-22T09:53:56.809Z,90304
2018-07-22T09:54:57.384Z,95936
2018-07-22T09:55:57.961Z,94240
2018-07-22T09:56:58.540Z,92480
2018-07-22T09:57:59.115Z,91008
2018-07-22T09:58:59.691Z,93600
2018-07-22T10:00:00.262Z,93440
2018-07-22T10:01:00.829Z,92544
2018-07-22T10:02:01.410Z,90688
2018-07-22T10:03:01.979Z,87392
2018-07-22T10:04:02.552Z,86080
2018-07-22T10:05:03.128Z,83040
2018-07-22T10:06:03.707Z,83680
2018-07-22T10:07:04.271Z,91680
2018-07-22T10:08:04.849Z,94496
2018-07-22T10:09:05.418Z,93376
2018-07-22T10:10:05.994Z,89280
2018-07-22T10:11:06.586Z,84992
2018-07-22T10:12:07.145Z,85344
2018-07-22T10:13:07.722Z,86496
2018-07-22T10:14:08.301Z,89120
2018-07-22T10:15:08.880Z,91328
2018-07-22T10:16:09.456Z,91616
2018-07-22T10:17:10.025Z,89664
2018-07-22T10:18:10.601Z,87744
2018-07-22T10:19:11.168Z,89440
2018-07-22T10:20:11.744Z,91104
2018-07-22T10:21:12.321Z,90976
2018-07-22T10:22:12.898Z,92000
2018-07-22T10:23:13.469Z,91680
2018-07-22T10:24:14.042Z,90784
2018-07-22T10:25:14.619Z,89408
2018-07-22T10:26:15.190Z,90432
2018-07-22T10:27:15.767Z,93888
2018-07-22T10:28:16.341Z,94368
2018-07-22T10:29:16.918Z,96064
2018-07-22T10:30:17.492Z,94880
2018-07-22T10:31:18.073Z,94048
2018-07-22T10:32:18.652Z,93600
2018-07-22T10:33:19.225Z,94432
2018-07-22T10:34:19.804Z,96160
2018-07-22T10:35:20.377Z,98016
2018-07-22T10:36:20.945Z,99136
2018-07-22T10:37:21.520Z,99232
2018-07-22T10:38:22.095Z,98976
2018-07-22T10:39:22.678Z,97504
2018-07-22T10:40:23.247Z,97152
2018-07-22T10:41:23.816Z,97248
2018-07-22T10:42:24.388Z,96000
2018-07-22T10:43:25.000Z,95200
2018-07-22T10:44:25.539Z,93600
2018-07-22T10:45:26.114Z,94080
2018-07-22T10:46:26.690Z,94336
2018-07-22T10:47:27.268Z,97120
2018-07-22T10:48:27.844Z,98880
2018-07-22T10:49:28.412Z,97728
2018-07-22T10:50:28.989Z,96960
2018-07-22T10:51:29.586Z,96864
2018-07-22T10:52:30.143Z,98080
2018-07-22T10:53:30.716Z,101472
2018-07-22T10:54:31.295Z,104256
2018-07-22T10:55:31.872Z,104576
2018-07-22T10:56:32.448Z,103040
2018-07-22T10:57:33.025Z,98400
2018-07-22T10:58:33.601Z,94592
2018-07-22T10:59:34.176Z,93760
2018-07-22T11:00:34.750Z,96288
2018-07-22T11:01:35.328Z,98976
2018-07-22T11:02:35.903Z,101312
2018-07-22T11:03:36.486Z,102368
2018-07-22T11:04:37.048Z,99456
2018-07-22T11:05:37.622Z,98240
2018-07-22T11:06:38.200Z,95520
2018-07-22T11:07:38.782Z,93760
2018-07-22T11:08:39.355Z,93408
2018-07-22T11:09:39.930Z,95168
2018-07-22T11:10:40.504Z,97600
2018-07-22T11:11:41.079Z,99744
2018-07-22T11:12:41.653Z,100256
2018-07-22T11:13:42.225Z,100256
2018-07-22T11:14:42.864Z,98400
2018-07-22T11:15:43.371Z,92992
2018-07-22T11:16:43.939Z,87936
2018-07-22T11:17:44.518Z,86976
2018-07-22T11:18:45.097Z,92192
2018-07-22T11:19:45.670Z,97888
2018-07-22T11:20:46.257Z,99648
2018-07-22T11:21:46.821Z,98752
2018-07-22T11:22:47.397Z,94752
2018-07-22T11:23:47.974Z,92544
2018-07-22T11:24:48.552Z,93888
2018-07-22T11:25:49.129Z,95456
2018-07-22T11:26:49.706Z,98080
2018-07-22T11:27:50.277Z,98624
2018-07-22T11:28:50.964Z,98016
2018-07-22T11:29:51.439Z,98240
2018-07-22T11:30:52.006Z,97984
2018-07-22T11:31:52.572Z,99104
2018-07-22T11:32:53.147Z,100224
2018-07-22T11:33:53.722Z,99776
2018-07-22T11:34:54.303Z,98816
2018-07-22T11:35:54.917Z,88672
2018-07-22T11:36:55.453Z,87936
2018-07-22T11:37:56.028Z,84448
2018-07-22T11:38:56.605Z,88544
2018-07-22T11:39:57.183Z,77600
2018-07-22T11:40:57.764Z,101792
2018-07-22T11:41:58.344Z,100256
2018-07-22T11:42:58.918Z,99328
2018-07-22T11:43:59.582Z,98176
2018-07-22T11:45:00.063Z,99296
2018-07-22T11:46:00.637Z,99616
2018-07-22T11:47:01.207Z,101408
2018-07-22T11:48:01.783Z,101568
2018-07-22T11:49:02.365Z,103424
2018-07-22T11:50:02.945Z,106080
2018-07-22T11:51:03.521Z,107008
2018-07-22T11:52:04.101Z,107072
2018-07-22T11:53:04.682Z,105440
2018-07-22T11:54:05.261Z,103904
2018-07-22T11:55:05.834Z,102240
2018-07-22T11:56:06.409Z,100640
2018-07-22T11:57:06.990Z,100832
2018-07-22T11:58:07.561Z,101376
2018-07-22T11:59:08.136Z,103200
2018-07-22T12:00:08.759Z,106048
2018-07-22T12:01:09.283Z,101472
2018-07-22T12:02:09.852Z,96512
2018-07-22T12:03:10.430Z,96736
2018-07-22T12:04:11.009Z,98048
2018-07-22T12:05:11.586Z,101184
2018-07-22T12:06:12.160Z,106336
2018-07-22T12:07:12.739Z,107776
2018-07-22T12:08:13.315Z,106912
2018-07-22T12:09:13.885Z,106176
2018-07-22T12:10:14.461Z,104288
2018-07-22T12:11:15.035Z,100480
2018-07-22T12:12:15.620Z,99136
2018-07-22T12:13:16.187Z,100704
2018-07-22T12:14:16.762Z,104096
2018-07-22T12:15:17.410Z,106080
2018-07-22T12:16:17.920Z,105408
2018-07-22T12:17:18.498Z,103872
2018-07-22T12:18:19.081Z,102240
2018-07-22T12:19:19.657Z,99168
2018-07-22T12:20:20.230Z,101728
2018-07-22T12:21:20.869Z,103840
2018-07-22T12:22:21.384Z,104000
2018-07-22T12:23:21.963Z,105344
2018-07-22T12:24:22.539Z,105120
2018-07-22T12:25:23.119Z,101152
2018-07-22T12:26:23.696Z,97728
2018-07-22T12:27:24.273Z,95904
2018-07-22T12:28:24.853Z,97472
2018-07-22T12:29:25.426Z,98080
2018-07-22T12:30:26.004Z,100672
2018-07-22T12:31:26.574Z,102816
2018-07-22T12:32:27.144Z,103680
2018-07-22T12:33:27.722Z,98848
2018-07-22T12:34:28.375Z,96928
2018-07-22T12:35:28.874Z,91136
2018-07-22T12:36:29.451Z,88896
2018-07-22T12:37:30.032Z,89280
2018-07-22T12:38:30.609Z,89984
2018-07-22T12:39:31.183Z,91520
2018-07-22T12:40:31.776Z,97856
2018-07-22T12:41:32.339Z,101344
2018-07-22T12:42:32.913Z,103200
2018-07-22T12:43:33.486Z,102368
2018-07-22T12:44:34.064Z,100160
2018-07-22T12:45:34.646Z,98080
2018-07-22T12:46:35.292Z,96896
2018-07-22T12:47:35.786Z,27008
2018-07-22T12:48:36.356Z,96384
2018-07-22T12:49:36.933Z,100768
2018-07-22T12:50:37.512Z,100768
2018-07-22T12:51:38.094Z,100608
2018-07-22T12:52:38.668Z,97856
2018-07-22T12:53:39.253Z,96640
2018-07-22T12:54:39.819Z,31968
2018-07-22T12:55:40.388Z,33184
2018-07-22T12:56:40.973Z,102816
2018-07-22T12:57:41.541Z,103840
2018-07-22T12:58:42.125Z,102208
2018-07-22T12:59:42.699Z,70304
2018-07-22T13:00:43.279Z,68960
2018-07-22T13:01:43.859Z,69088
2018-07-22T13:02:44.433Z,84160
2018-07-22T13:03:45.005Z,83360
2018-07-22T13:04:45.570Z,84768
2018-07-22T13:05:46.144Z,90560
2018-07-22T13:06:46.741Z,95232
2018-07-22T13:07:47.296Z,93056
2018-07-22T13:08:47.875Z,94656
2018-07-22T13:09:48.447Z,93632
2018-07-22T13:10:49.024Z,97984
2018-07-22T13:11:49.592Z,94592
2018-07-22T13:12:50.168Z,98016
2018-07-22T13:13:50.746Z,99136
2018-07-22T13:14:51.333Z,101248
2018-07-22T13:15:51.911Z,100000
2018-07-22T13:16:52.492Z,93248
2018-07-22T13:17:53.062Z,85120
2018-07-22T13:18:53.660Z,80960
2018-07-22T13:19:54.216Z,83776
2018-07-22T13:20:54.790Z,87552
2018-07-22T13:21:55.398Z,92288
2018-07-22T13:22:55.936Z,30464
2018-07-22T13:23:56.516Z,26464
2018-07-22T13:24:57.093Z,79520
2018-07-22T13:25:57.658Z,29216
2018-07-22T13:26:58.238Z,89792
2018-07-22T13:27:58.816Z,90976
2018-07-22T13:28:59.391Z,87200